Pointblank, TX

03:49 PM CST del 25 novembre 2014 (GMT -0600)
KTXOAKHU2 | Change Station
CLOSE
Current Station
Stazione meteo personale
Location: Oakhurst, TX
Altitudine: 181 ft
Stazioni meteo nelle vicinanze

Alt. 181 ft 30.83 °N, 95.33 °W | Updated 1 second ago

Sereno
Sereno
64.0 °F
Sembra 64.0 °F
N
0.0
Vento Variabile Vento da ONO
Gusts 11.0 mph

Oggi
Massima -- | Minima -- °F
--% Possibilità di precip.
Ieri
Massima -- | Minima -- °F
Precip. -- in
6:55 AM 5:19 PM
Luna crescente, 14% visible
Pressione 30.21 in
Visibilità 10.0 miglia
Nuvole Sereno
Punto di rugiada 40 °F
Umidità 42%
Piovosità 0.00 in
Spessore del manto nevoso Non disponibile.
Raggi UV 2 fuori da 12
Polline 2.60 fuori da 12
Qualità dell'aria Non disponibile.
Flu Activity Non disponibile.
METAR KUTS 252053Z AUTO 31011G16KT 10SM CLR 18/M04 A3022 RMK AO2 SLP230 T01781039 56023

More Conditions Fewer Conditions

Pressione 30.21 in
Visibilità 10.0 miglia
Nuvole Sereno
Punto di rugiada 40 °F
Umidità 42%
Piovosità 0.00 in
Spessore del manto nevoso Non disponibile.
Raggi UV 2 fuori da 12
Polline 2.60 fuori da 12
Qualità dell'aria Non disponibile.
Flu Activity Non disponibile.
METAR KUTS 252053Z AUTO 31011G16KT 10SM CLR 18/M04 A3022 RMK AO2 SLP230 T01781039 56023

More Conditions Fewer Conditions

10-Day Weather Forecast

Almanac

Astronomia

Nov. 25, 2014 Alba Tramonto
Ora attuale
Crepuscolo civile
Crepuscolo nautico
Crepuscolo astronomico
Luna
Estensione della luce visibile
Lunghezza del giorno
Tomorrow will be .
, % of the Moon is Illuminated

Gli estremi di oggi

State Highs State Lows

Community

WunderPhotos

Upload Photos

1,773,599 foto caricate!

WunderBlogs® & News

Nearby

Qualità dell'aria

  Qualità dell'aria Indice AQ Inquinante
Not available.

Profondità neve

Stazione Profondità Altitudine

Attività sismica

Città  Distanza Mag. Data & Ora
Minimo Magnitudo Mostrato è 2.5.

Temperature delle acque costiere

Località Temperatura

Stazioni meteo nelle vicinanze